Time;durP1;ratioP1;P1;durP2;ratioP2;P2;SDS_P1;SDS_P2;PMS_P1;PMS_P2;Temp;Humidity;BMP_temperature;BMP_pressure;BME280_temperature;BME280_humidity;BME280_pressure;Samples;Min_cycle;Max_cycle;Signal;HPM_P1;HPM_P2
2023/05/31 00:00:17;;;;;;;1.90;1.43;;;13.70;43.00;;;13.46;45.29;98438.78;4992755;28;20841;-72
2023/05/31 00:02:45;;;;;;;3.07;1.00;;;13.70;43.00;;;13.48;45.07;98440.44;4995589;28;20500;-72
2023/05/31 00:05:12;;;;;;;3.03;1.63;;;13.80;43.00;;;13.48;45.14;98444.00;5018024;28;20460;-72
2023/05/31 00:07:39;;;;;;;1.70;1.30;;;13.80;42.90;;;13.52;44.87;98441.69;4992618;28;20460;-73
2023/05/31 00:10:08;;;;;;;2.87;1.47;;;13.80;42.90;;;13.48;45.30;98445.88;5018532;28;20461;-72
2023/05/31 00:12:35;;;;;;;1.50;1.40;;;13.80;42.90;;;13.43;45.02;98444.66;5014179;28;20484;-73
2023/05/31 00:15:02;;;;;;;3.37;1.33;;;13.70;42.80;;;13.45;45.14;98431.69;5011774;28;20484;-72
2023/05/31 00:17:31;;;;;;;2.60;1.60;;;13.80;42.90;;;13.41;45.71;98432.34;5009485;28;20516;-72
2023/05/31 00:19:58;;;;;;;2.30;1.10;;;13.70;42.90;;;13.31;45.79;98436.41;5011351;28;20974;-74
2023/05/31 00:22:25;;;;;;;2.67;1.07;;;13.60;43.10;;;13.10;46.11;98428.66;5017767;28;21097;-74
2023/05/31 00:24:55;;;;;;;6.30;1.17;;;13.50;43.10;;;13.24;45.84;98434.81;5017998;28;20463;-72
2023/05/31 00:27:22;;;;;;;2.00;1.50;;;13.50;43.10;;;13.21;45.94;98429.84;5017940;28;20462;-71
2023/05/31 00:29:49;;;;;;;2.87;1.20;;;13.50;43.50;;;13.15;46.02;98426.94;4999485;28;20468;-71
2023/05/31 00:32:16;;;;;;;4.30;1.80;;;13.40;43.20;;;13.09;45.86;98432.41;5001142;28;20467;-72
2023/05/31 00:34:45;;;;;;;1.57;1.03;;;13.40;43.20;;;13.07;46.27;98429.09;4997797;28;20456;-72
2023/05/31 00:37:12;;;;;;;1.40;0.90;;;13.30;43.30;;;13.09;46.54;98422.41;5018416;28;20469;-72
2023/05/31 00:39:39;;;;;;;1.53;1.40;;;13.40;43.30;;;13.08;46.20;98425.34;5013209;28;21107;-72
2023/05/31 00:42:09;;;;;;;1.57;1.37;;;13.40;43.30;;;13.08;46.28;98423.47;5013824;28;20522;-72
2023/05/31 00:44:37;;;;;;;2.10;1.40;;;13.40;43.30;;;13.04;46.02;98419.53;5015028;28;20541;-72
2023/05/31 00:47:05;;;;;;;2.93;1.07;;;13.40;43.30;;;13.02;46.20;98417.03;4996503;28;20556;-72
2023/05/31 00:49:33;;;;;;;2.20;1.40;;;13.40;43.40;;;13.11;46.07;98422.19;5020138;28;20464;-72
2023/05/31 00:52:02;;;;;;;1.50;1.10;;;13.40;43.30;;;13.09;46.26;98417.00;4999591;28;20994;-71
2023/05/31 00:54:30;;;;;;;1.80;1.10;;;13.30;43.40;;;13.08;45.88;98422.63;5015411;28;20488;-71
2023/05/31 00:56:57;;;;;;;2.00;0.83;;;13.40;43.30;;;13.09;46.09;98416.16;5007101;28;20469;-72
2023/05/31 00:59:25;;;;;;;1.77;1.07;;;13.40;43.70;;;13.03;46.12;98407.84;4993392;28;20539;-72
2023/05/31 01:01:55;;;;;;;2.87;1.23;;;13.40;43.30;;;12.98;46.15;98404.16;5013734;28;20461;-73
2023/05/31 01:04:23;;;;;;;2.47;1.83;;;13.30;43.30;;;12.93;46.43;98406.69;5013698;28;20450;-71
2023/05/31 01:06:51;;;;;;;1.50;1.00;;;13.30;43.40;;;12.95;46.53;98405.41;5011188;28;20469;-72
2023/05/31 01:09:20;;;;;;;2.73;1.33;;;13.20;43.50;;;12.87;46.51;98413.84;5002675;28;20461;-71
2023/05/31 01:12:00;;;;;;;2.60;1.60;;;13.20;43.60;;;12.77;46.90;98399.94;5009252;28;20477;-72
2023/05/31 01:14:37;;;;;;;4.10;1.50;;;13.10;43.60;;;12.75;46.69;98397.47;5011253;28;20554;-70
2023/05/31 01:17:20;;;;;;;4.23;1.33;;;13.10;43.70;;;12.78;47.19;98407.00;4998317;28;20566;-74
2023/05/31 01:19:53;;;;;;;2.37;1.20;;;13.10;43.80;;;12.72;47.23;98412.28;5015371;28;20478;-73
2023/05/31 01:22:32;;;;;;;1.27;1.17;;;13.00;43.80;;;12.63;47.30;98397.31;4991005;28;20467;-72
2023/05/31 01:25:23;;;;;;;1.87;1.27;;;13.00;44.00;;;12.60;47.66;98414.88;4995788;28;20462;-72
2023/05/31 01:27:54;;;;;;;1.70;1.27;;;12.90;43.90;;;12.60;47.38;98422.16;4995587;28;20938;-72
2023/05/31 01:30:22;;;;;;;1.93;1.50;;;12.80;43.90;;;12.39;47.57;98407.91;4997132;28;20469;-72
2023/05/31 01:32:51;;;;;;;3.00;1.40;;;12.70;44.30;;;12.50;47.31;98425.34;5014469;28;20506;-73
2023/05/31 01:35:19;;;;;;;2.20;1.73;;;12.70;44.10;;;12.30;48.22;98420.88;5015348;28;20467;-74
2023/05/31 01:37:47;;;;;;;2.67;1.10;;;12.60;44.20;;;12.17;48.31;98421.75;4994905;28;20469;-73
2023/05/31 01:40:16;;;;;;;1.80;1.30;;;12.50;44.30;;;12.24;48.42;98427.16;4996790;28;20455;-73
2023/05/31 01:42:44;;;;;;;2.40;1.37;;;12.50;44.40;;;12.22;48.18;98421.13;4996523;28;20558;-75
2023/05/31 01:45:15;;;;;;;5.30;1.50;;;12.50;44.40;;;12.17;48.69;98427.19;5013157;28;20454;-74
2023/05/31 01:47:45;;;;;;;1.50;1.23;;;12.50;44.40;;;12.14;48.76;98427.63;5013660;28;20467;-72
2023/05/31 01:50:14;;;;;;;2.27;1.60;;;12.40;44.50;;;12.17;48.73;98421.75;4994663;28;21072;-74
2023/05/31 01:52:42;;;;;;;2.07;1.20;;;12.40;44.60;;;12.12;48.80;98432.44;5019869;28;20468;-74
2023/05/31 01:55:10;;;;;;;2.57;1.57;;;12.40;44.80;;;11.90;49.63;98435.41;4991671;28;20459;-73
2023/05/31 01:57:40;;;;;;;1.63;1.00;;;12.20;45.20;;;11.86;49.45;98428.75;5008133;28;21373;-72
2023/05/31 02:00:11;;;;;;;3.03;1.50;;;12.10;44.90;;;11.86;49.51;98426.03;5016892;28;20534;-73
2023/05/31 02:02:42;;;;;;;1.93;1.10;;;12.00;45.20;;;11.76;50.15;98431.09;5006130;28;20528;-73
2023/05/31 02:05:12;;;;;;;1.37;1.23;;;12.00;45.30;;;11.82;49.94;98432.94;5020074;28;20463;-74
2023/05/31 02:07:40;;;;;;;1.70;1.17;;;12.00;45.40;;;11.67;49.79;98427.75;5020630;28;20464;-75
2023/05/31 02:10:09;;;;;;;3.50;1.77;;;12.00;45.40;;;11.73;49.68;98428.78;4992265;28;20496;-73
2023/05/31 02:12:37;;;;;;;2.43;1.40;;;12.00;45.40;;;11.72;50.20;98436.09;5014138;28;20463;-72
2023/05/31 02:15:10;;;;;;;3.73;1.70;;;12.00;45.40;;;11.68;50.11;98431.31;5001507;28;20516;-71
2023/05/31 02:17:42;;;;;;;2.53;1.37;;;12.00;45.40;;;11.52;51.08;98436.13;5000543;28;20474;-71
2023/05/31 02:20:12;;;;;;;4.53;1.40;;;11.80;45.60;;;11.50;50.22;98427.41;5014202;28;20462;-71
2023/05/31 02:22:41;;;;;;;3.17;1.30;;;11.80;45.70;;;11.49;50.75;98431.16;5011995;28;20682;-72
2023/05/31 02:25:10;;;;;;;1.67;1.47;;;11.80;45.80;;;11.52;50.92;98432.56;5019124;28;20904;-71
2023/05/31 02:27:37;;;;;;;1.53;1.23;;;11.80;46.00;;;11.37;50.57;98428.22;5028404;28;20510;-72
2023/05/31 02:30:06;;;;;;;3.03;1.60;;;11.60;46.00;;;11.20;51.52;98427.84;5011534;28;20814;-73
2023/05/31 02:32:35;;;;;;;1.47;1.30;;;11.50;46.60;;;11.18;50.99;98403.72;5017762;28;20463;-73
2023/05/31 02:35:06;;;;;;;2.33;1.67;;;11.50;46.40;;;11.34;51.01;98426.81;5017092;28;20472;-73
2023/05/31 02:37:34;;;;;;;3.10;1.70;;;11.60;46.40;;;11.32;50.60;98418.06;5013036;28;20564;-73
2023/05/31 02:40:06;;;;;;;1.43;1.23;;;11.60;46.50;;;11.22;51.52;98420.34;5011248;28;20811;-73
2023/05/31 02:42:33;;;;;;;2.70;1.47;;;11.60;46.40;;;11.27;50.91;98423.25;5019411;28;20463;-73
2023/05/31 02:45:00;;;;;;;2.83;1.43;;;11.60;46.50;;;11.25;51.56;98419.94;5018422;28;20469;-73
2023/05/31 02:47:28;;;;;;;2.30;1.30;;;11.60;46.50;;;11.19;51.02;98426.19;4993069;28;20471;-72
2023/05/31 02:49:55;;;;;;;3.07;1.50;;;11.60;46.80;;;11.21;51.84;98421.41;5005152;28;20873;-72
2023/05/31 02:52:24;;;;;;;2.27;1.37;;;11.50;46.60;;;11.15;51.23;98427.66;5018435;28;20472;-74
2023/05/31 02:54:51;;;;;;;2.40;1.60;;;11.50;46.70;;;11.08;51.61;98424.97;5022281;28;20989;-73
2023/05/31 02:57:18;;;;;;;1.90;1.33;;;11.50;46.80;;;11.05;52.29;98414.53;5007118;28;20898;-73
2023/05/31 02:59:46;;;;;;;2.23;1.57;;;11.40;46.80;;;11.23;51.36;98422.03;5017678;28;20987;-72
2023/05/31 03:02:14;;;;;;;2.10;1.40;;;11.60;46.90;;;11.20;51.52;98420.56;5017508;28;20867;-72
2023/05/31 03:04:42;;;;;;;3.30;1.63;;;11.60;46.80;;;11.16;51.84;98422.03;5023143;28;20847;-71
2023/05/31 03:07:10;;;;;;;2.07;1.30;;;11.50;46.80;;;11.20;51.17;98422.44;5014364;28;20468;-72
2023/05/31 03:09:38;;;;;;;3.37;1.70;;;11.50;46.90;;;11.31;51.26;98418.25;5016454;28;20461;-72
2023/05/31 03:12:07;;;;;;;4.87;1.60;;;11.60;46.80;;;11.30;51.11;98428.28;5006364;28;20909;-71
2023/05/31 03:14:34;;;;;;;2.40;1.10;;;11.70;46.70;;;11.41;50.95;98418.66;5027621;28;20469;-72
2023/05/31 03:17:03;;;;;;;2.70;1.50;;;11.80;46.70;;;11.48;50.39;98426.78;4997340;28;20470;-71
2023/05/31 03:19:30;;;;;;;2.30;1.30;;;11.80;46.60;;;11.53;50.09;98428.84;5014574;28;20451;-71
2023/05/31 03:21:57;;;;;;;1.40;1.17;;;11.90;46.50;;;11.56;50.47;98421.13;5004982;28;20464;-72
2023/05/31 03:24:24;;;;;;;2.17;1.50;;;11.90;46.50;;;11.51;50.16;98418.22;5002962;28;20475;-72
2023/05/31 03:26:54;;;;;;;4.53;1.87;;;11.90;46.40;;;11.62;50.08;98425.72;5008833;28;20458;-73
2023/05/31 03:29:22;;;;;;;2.63;1.10;;;12.00;46.50;;;11.66;50.12;98425.28;5004453;28;20588;-71
2023/05/31 03:31:49;;;;;;;1.40;1.30;;;12.00;46.40;;;11.68;50.72;98437.56;5017393;28;20525;-73
2023/05/31 03:34:16;;;;;;;2.67;1.47;;;12.00;46.50;;;11.61;50.50;98429.47;5020673;28;20884;-72
2023/05/31 03:36:44;;;;;;;3.23;1.40;;;12.00;46.50;;;11.58;50.36;98412.81;5018913;28;21140;-73
2023/05/31 03:39:11;;;;;;;4.23;1.90;;;12.00;46.40;;;11.61;49.86;98418.63;5006478;28;20492;-74
2023/05/31 03:41:38;;;;;;;2.47;1.40;;;12.00;46.50;;;11.74;50.41;98436.69;5001638;28;20454;-72
2023/05/31 03:44:07;;;;;;;3.30;1.40;;;12.00;46.60;;;11.79;49.72;98425.25;5008215;28;20476;-72
2023/05/31 03:46:34;;;;;;;2.53;1.50;;;12.00;46.50;;;11.77;50.27;98427.34;5022935;28;21111;-72
2023/05/31 03:49:02;;;;;;;2.10;1.20;;;12.10;46.60;;;11.74;50.31;98433.16;5006810;28;20474;-72
2023/05/31 03:51:30;;;;;;;2.90;1.30;;;12.10;46.50;;;11.69;50.47;98441.94;5009394;28;20460;-71
2023/05/31 03:53:57;;;;;;;1.60;1.10;;;12.00;46.70;;;11.77;50.79;98435.44;5022945;28;20573;-73
2023/05/31 03:56:25;;;;;;;4.30;1.60;;;12.10;46.80;;;11.67;51.41;98438.56;5006696;28;20456;-71
2023/05/31 03:58:52;;;;;;;2.30;1.33;;;12.00;47.10;;;11.72;51.02;98444.22;5019617;28;20607;-72
2023/05/31 04:01:22;;;;;;;1.70;1.30;;;12.00;47.00;;;11.81;50.34;98444.81;5020582;28;22319;-71
2023/05/31 04:03:49;;;;;;;1.93;1.40;;;12.10;47.00;;;12.07;49.92;98440.38;5019285;28;20481;-72
2023/05/31 04:06:16;;;;;;;2.20;1.33;;;12.30;47.00;;;12.26;48.76;98397.16;4998752;28;20463;-73
2023/05/31 04:08:44;;;;;;;2.90;1.70;;;12.80;46.40;;;13.30;47.32;98440.19;5020925;28;20833;-73
2023/05/31 04:11:11;;;;;;;3.63;1.30;;;13.40;46.10;;;14.07;45.13;98435.44;5008099;28;20464;-73
2023/05/31 04:13:38;;;;;;;2.27;1.30;;;14.30;45.30;;;14.63;43.58;98385.53;5028140;28;20468;-72
2023/05/31 04:16:05;;;;;;;2.00;1.40;;;15.20;44.80;;;15.65;41.97;98439.94;5024862;28;20464;-72
2023/05/31 04:18:35;;;;;;;1.73;1.30;;;16.10;43.80;;;15.76;41.54;98430.91;5025493;28;21016;-72
2023/05/31 04:21:02;;;;;;;4.93;2.00;;;16.40;43.30;;;16.29;40.12;98445.41;4999880;28;20951;-72
2023/05/31 04:23:29;;;;;;;2.80;1.50;;;17.00;42.70;;;16.32;40.06;98444.09;5000409;28;20602;-73
2023/05/31 04:25:57;;;;;;;1.80;1.70;;;17.20;42.50;;;16.07;40.21;98444.38;5015510;28;21008;-73
2023/05/31 04:28:25;;;;;;;2.33;1.17;;;17.00;42.30;;;16.07;40.47;98438.94;5018377;28;20919;-73
2023/05/31 04:30:52;;;;;;;1.53;1.37;;;16.90;42.30;;;16.32;39.99;98446.81;5021262;28;20454;-73
2023/05/31 04:33:19;;;;;;;2.67;1.80;;;17.30;42.40;;;17.05;38.76;98413.47;5001771;28;21212;-84
2023/05/31 04:35:48;;;;;;;1.63;1.23;;;17.70;42.50;;;17.28;38.38;98439.78;4994411;28;20459;-72
2023/05/31 04:38:16;;;;;;;2.33;1.60;;;18.20;41.90;;;17.22;39.23;98440.78;5003006;28;20973;-68
2023/05/31 04:40:43;;;;;;;2.83;1.83;;;18.40;41.90;;;17.59;38.07;98439.44;5004691;28;20465;-68
2023/05/31 04:43:10;;;;;;;1.97;1.73;;;18.60;41.60;;;18.05;37.24;98436.50;4997085;28;20455;-68
2023/05/31 04:45:38;;;;;;;3.43;1.77;;;18.80;41.50;;;17.18;38.61;98439.59;5010730;28;20453;-69
2023/05/31 04:48:05;;;;;;;2.63;2.00;;;18.60;41.30;;;17.48;38.20;98438.44;5008601;28;20487;-69
2023/05/31 04:50:33;;;;;;;2.67;1.53;;;18.40;41.40;;;17.20;37.96;98453.84;5008650;28;20494;-68
2023/05/31 04:53:02;;;;;;;3.00;1.60;;;18.50;41.20;;;17.54;37.94;98447.53;4998832;28;20454;-71
2023/05/31 04:55:30;;;;;;;1.90;1.47;;;18.60;41.20;;;17.55;38.38;98444.56;4996356;28;20903;-80
2023/05/31 04:57:58;;;;;;;2.17;1.70;;;18.60;41.40;;;18.06;37.40;98437.34;5024022;28;21449;-69
2023/05/31 05:00:25;;;;;;;2.23;1.70;;;18.80;41.70;;;17.49;37.87;98445.53;4994181;28;20462;-69
2023/05/31 05:02:53;;;;;;;1.50;1.30;;;18.40;41.30;;;17.23;38.29;98456.09;5009431;28;20456;-68
2023/05/31 05:05:20;;;;;;;2.23;1.30;;;18.20;41.20;;;17.73;37.60;98444.50;5001582;28;20470;-68
2023/05/31 05:07:51;;;;;;;2.60;1.87;;;18.30;41.40;;;17.08;38.77;98464.03;4998588;28;20476;-69
2023/05/31 05:10:20;;;;;;;2.80;1.43;;;18.10;41.50;;;17.25;38.47;98472.22;5027219;28;20465;-68
2023/05/31 05:12:47;;;;;;;3.80;1.73;;;18.00;41.50;;;17.50;38.27;98455.38;5008038;28;20498;-68
2023/05/31 05:15:14;;;;;;;3.90;1.97;;;18.30;41.40;;;17.28;38.79;98460.78;5005806;28;20455;-69
2023/05/31 05:17:44;;;;;;;1.63;1.53;;;18.30;41.40;;;17.88;37.50;98457.56;5014019;28;21140;-69
2023/05/31 05:20:12;;;;;;;2.70;1.57;;;18.70;41.40;;;18.14;37.14;98464.22;5023264;28;20457;-69
2023/05/31 05:22:39;;;;;;;1.80;1.60;;;19.00;41.10;;;17.67;37.98;98469.03;4998981;28;20465;-69
2023/05/31 05:25:08;;;;;;;3.70;2.20;;;18.70;41.20;;;18.04;37.68;98473.13;5018343;28;20486;-70
2023/05/31 05:27:39;;;;;;;2.23;1.60;;;19.00;41.30;;;17.52;38.50;98477.84;4984307;28;21229;-70
2023/05/31 05:30:08;;;;;;;6.60;2.03;;;18.50;41.20;;;17.87;37.73;98475.88;5003570;28;20524;-68
2023/05/31 05:32:39;;;;;;;1.50;1.30;;;18.80;41.30;;;17.75;37.78;98477.91;4997884;28;20520;-68
2023/05/31 05:35:08;;;;;;;3.13;1.60;;;18.80;41.10;;;17.84;37.84;98477.22;4995292;28;20550;-69
2023/05/31 05:37:36;;;;;;;2.10;1.90;;;18.70;41.20;;;17.52;38.45;98491.50;4995768;28;20966;-69
2023/05/31 05:40:06;;;;;;;2.70;2.10;;;18.30;41.20;;;17.54;38.76;98474.84;5017156;28;20553;-69
2023/05/31 05:42:36;;;;;;;2.30;2.00;;;18.30;41.70;;;17.46;38.48;98484.28;4993355;28;21250;-69
2023/05/31 05:45:07;;;;;;;4.33;2.10;;;18.30;41.50;;;17.38;38.92;98479.25;5014890;28;20520;-69
2023/05/31 05:47:35;;;;;;;2.90;2.00;;;18.30;41.70;;;18.30;37.54;98475.34;5011494;28;21074;-69
2023/05/31 05:50:03;;;;;;;2.03;1.77;;;18.80;41.80;;;19.12;36.62;98480.88;5017701;28;20473;-68
2023/05/31 05:52:30;;;;;;;2.73;1.73;;;19.80;41.70;;;18.97;35.95;98484.28;5018200;28;20451;-68
2023/05/31 05:54:57;;;;;;;5.63;1.60;;;20.10;40.70;;;18.57;36.61;98480.03;5015822;28;21220;-68
2023/05/31 05:57:25;;;;;;;3.03;1.70;;;19.80;40.70;;;18.24;37.28;98483.50;5012719;28;21318;-68
2023/05/31 05:59:53;;;;;;;1.93;1.77;;;19.40;41.10;;;18.39;36.71;98485.56;5015532;28;20474;-70
2023/05/31 06:02:22;;;;;;;3.27;2.23;;;19.50;40.80;;;17.99;37.40;98486.69;5015611;28;20874;-70
2023/05/31 06:04:51;;;;;;;2.33;1.57;;;19.10;40.80;;;18.39;36.93;98480.09;5008425;28;20485;-69
2023/05/31 06:07:19;;;;;;;4.30;2.37;;;19.30;41.10;;;18.04;37.46;98478.59;4996350;28;20467;-69
2023/05/31 06:09:46;;;;;;;4.43;1.87;;;18.90;41.00;;;17.81;37.82;98483.16;5018943;28;20492;-68
2023/05/31 06:12:14;;;;;;;4.23;1.90;;;18.80;41.10;;;17.77;38.29;98482.00;5000236;28;20454;-68
2023/05/31 06:14:42;;;;;;;2.20;1.90;;;18.60;41.30;;;17.97;37.76;98478.75;5007792;28;20465;-69
2023/05/31 06:17:09;;;;;;;2.20;1.70;;;18.80;41.30;;;18.36;37.35;98480.63;5013427;28;20465;-68
2023/05/31 06:19:38;;;;;;;2.90;1.73;;;19.00;41.40;;;18.75;36.63;98476.94;5021183;28;20474;-70
2023/05/31 06:22:06;;;;;;;3.20;1.70;;;19.50;41.10;;;17.99;37.88;98475.78;4994237;28;20466;-68
2023/05/31 06:24:33;;;;;;;2.73;1.80;;;19.10;41.20;;;17.80;38.85;98489.69;5004529;28;20532;-69
2023/05/31 06:27:02;;;;;;;2.30;1.67;;;18.60;41.70;;;17.30;39.62;98499.63;5021626;28;20498;-69
2023/05/31 06:29:29;;;;;;;2.30;1.70;;;18.10;41.90;;;16.07;40.93;98415.25;5015815;28;20499;-67
2023/05/31 06:31:56;;;;;;;2.70;1.53;;;17.20;42.30;;;16.34;41.29;98493.75;4992192;28;20446;-68
2023/05/31 06:34:24;;;;;;;2.37;1.80;;;16.90;42.50;;;16.47;41.31;98489.09;5014946;28;20982;-67
2023/05/31 06:36:52;;;;;;;4.20;1.80;;;16.80;42.90;;;16.58;41.32;98485.47;5013772;28;20474;-67
2023/05/31 06:39:19;;;;;;;3.27;1.70;;;16.90;43.00;;;16.54;41.53;98490.59;5020501;28;20490;-68
2023/05/31 06:41:47;;;;;;;4.70;1.53;;;16.90;42.80;;;16.49;41.14;98482.31;5016063;28;20458;-68
2023/05/31 06:44:14;;;;;;;2.40;2.03;;;16.90;42.70;;;16.57;41.35;98481.09;5014315;28;21147;-69
2023/05/31 06:46:41;;;;;;;3.40;2.00;;;16.90;42.80;;;16.70;40.86;98475.34;4999935;28;20461;-68
2023/05/31 06:49:08;;;;;;;2.57;2.00;;;17.00;42.90;;;16.97;40.40;98482.91;4996938;28;20529;-67
2023/05/31 06:51:36;;;;;;;2.03;1.63;;;17.20;43.10;;;16.60;41.11;98472.41;5023012;28;20462;-68
2023/05/31 06:54:05;;;;;;;1.60;1.50;;;17.10;42.70;;;16.73;40.92;98478.66;5018328;28;20533;-68
2023/05/31 06:56:32;;;;;;;3.00;1.60;;;17.00;42.80;;;16.86;40.65;98478.34;5013827;28;20465;-69
2023/05/31 06:59:00;;;;;;;3.37;2.47;;;17.10;42.90;;;17.04;40.43;98482.78;4999810;28;20469;-69
2023/05/31 07:01:28;;;;;;;3.43;1.83;;;17.30;42.80;;;16.87;40.05;98477.28;4999923;28;20461;-69
2023/05/31 07:03:55;;;;;;;2.50;1.70;;;17.30;42.60;;;17.09;39.87;98471.16;5018165;28;20946;-68
2023/05/31 07:06:24;;;;;;;2.40;1.57;;;17.40;42.70;;;17.27;40.25;98481.81;5023875;28;20559;-68
2023/05/31 07:08:52;;;;;;;2.83;1.73;;;17.50;42.80;;;17.17;39.38;98480.81;5017902;28;20519;-68
2023/05/31 07:11:22;;;;;;;2.23;1.43;;;17.60;42.30;;;17.51;39.18;98476.16;4995819;28;20977;-68
2023/05/31 07:13:49;;;;;;;1.93;1.70;;;17.70;42.50;;;17.80;39.13;98475.22;5018327;28;20620;-69
2023/05/31 07:16:16;;;;;;;2.90;1.90;;;18.00;42.60;;;17.61;38.43;98471.94;5000137;28;20463;-68
2023/05/31 07:18:45;;;;;;;2.70;1.73;;;18.00;41.90;;;17.58;38.41;98432.28;5012372;28;20509;-68
2023/05/31 07:21:13;;;;;;;3.10;1.60;;;18.10;42.20;;;18.23;37.87;98464.59;5017528;28;20464;-70
2023/05/31 07:23:40;;;;;;;2.30;1.50;;;18.30;42.10;;;18.04;37.94;98464.09;5024668;28;20962;-67
2023/05/31 07:26:07;;;;;;;3.90;1.63;;;18.40;41.80;;;17.90;38.22;98472.66;5018486;28;20471;-67
2023/05/31 07:28:36;;;;;;;1.83;1.27;;;18.30;41.80;;;17.90;37.47;98461.72;5010876;28;20454;-68
2023/05/31 07:31:03;;;;;;;3.80;1.77;;;18.30;41.40;;;18.05;37.78;98461.09;5022032;28;21245;-68
2023/05/31 07:33:31;;;;;;;2.90;1.27;;;18.20;41.60;;;18.09;37.13;98453.22;5001822;28;20470;-69
2023/05/31 07:36:00;;;;;;;3.27;1.33;;;18.40;41.50;;;18.01;37.07;98457.19;5000239;28;20973;-70
2023/05/31 07:38:28;;;;;;;2.83;1.30;;;18.30;41.10;;;18.13;37.41;98459.84;5012083;28;20470;-69
2023/05/31 07:40:55;;;;;;;1.67;1.57;;;18.40;41.40;;;17.97;36.41;98456.06;5010690;28;21021;-67
2023/05/31 07:43:24;;;;;;;4.70;2.00;;;18.40;40.90;;;18.38;36.54;98456.56;5015855;28;20520;-70
2023/05/31 07:45:54;;;;;;;2.70;1.57;;;18.50;41.30;;;18.56;36.80;98440.91;5017358;28;20489;-67
2023/05/31 07:48:21;;;;;;;1.97;1.70;;;18.70;41.50;;;18.75;35.99;98456.97;4998700;28;20576;-70
2023/05/31 07:50:49;;;;;;;2.60;1.37;;;18.90;41.10;;;18.76;35.17;98461.38;5013635;28;20478;-68
2023/05/31 07:53:18;;;;;;;2.20;1.50;;;19.00;40.60;;;18.56;35.63;98454.56;4999856;28;20549;-68
2023/05/31 07:55:46;;;;;;;4.10;1.90;;;18.90;40.40;;;18.72;35.12;98443.78;4998553;28;20462;-67
2023/05/31 07:58:13;;;;;;;4.80;1.83;;;18.90;40.30;;;18.72;34.84;98461.03;5015695;28;20534;-68
2023/05/31 08:00:40;;;;;;;3.73;1.97;;;19.00;40.20;;;18.52;35.56;98446.06;5009557;28;20538;-69
2023/05/31 08:03:09;;;;;;;2.73;1.57;;;18.80;40.30;;;18.46;35.41;98447.09;5022325;28;20474;-68
2023/05/31 08:05:36;;;;;;;2.63;1.87;;;18.80;40.20;;;18.76;35.14;98431.25;5012037;28;20478;-68
2023/05/31 08:08:05;;;;;;;2.90;2.20;;;18.90;40.40;;;18.72;34.76;98432.84;4998338;28;20454;-68
2023/05/31 08:10:33;;;;;;;1.63;1.53;;;19.00;40.10;;;18.95;34.71;98445.38;5016428;28;20458;-68
2023/05/31 08:13:00;;;;;;;2.93;1.80;;;19.10;40.20;;;18.82;34.45;98443.91;5003371;28;20508;-67
2023/05/31 08:15:27;;;;;;;4.50;1.70;;;19.10;39.70;;;18.97;34.52;98440.50;5000672;28;20455;-68
2023/05/31 08:17:55;;;;;;;2.83;1.73;;;19.20;40.00;;;18.92;34.49;98444.00;5015807;28;20470;-68
2023/05/31 08:20:24;;;;;;;2.80;1.83;;;19.20;39.80;;;19.02;34.36;98447.94;5000816;28;20465;-69
2023/05/31 08:22:52;;;;;;;2.50;2.30;;;19.20;39.90;;;18.95;34.07;98443.47;5018384;28;20463;-69
2023/05/31 08:25:22;;;;;;;1.60;1.50;;;19.30;39.70;;;19.18;34.58;98425.06;5001502;28;20482;-69
2023/05/31 08:27:50;;;;;;;3.60;1.63;;;19.40;40.20;;;19.08;33.39;98433.22;5012910;28;20450;-69
2023/05/31 08:30:18;;;;;;;5.73;1.57;;;19.40;39.30;;;19.39;33.96;98422.47;5020239;28;20466;-68
2023/05/31 08:32:45;;;;;;;4.90;1.93;;;19.50;39.80;;;19.38;33.71;98429.88;5010437;28;20446;-69
2023/05/31 08:35:12;;;;;;;1.90;1.53;;;19.60;39.60;;;19.49;33.61;98427.19;5014251;28;20450;-69
2023/05/31 08:37:41;;;;;;;6.30;1.80;;;19.70;39.80;;;19.63;33.49;98428.38;5017633;28;20548;-69
2023/05/31 08:40:09;;;;;;;2.73;1.40;;;19.80;39.80;;;19.88;33.23;98429.63;4996382;28;20850;-70
2023/05/31 08:42:53;;;;;;;2.43;1.80;;;20.00;39.80;;;19.62;33.16;98425.91;5000908;28;20613;-69
2023/05/31 08:45:21;;;;;;;1.60;1.50;;;19.80;39.20;;;19.74;32.79;98414.75;5016476;28;20470;-69
2023/05/31 08:47:59;;;;;;;3.57;1.50;;;19.90;39.20;;;19.84;32.87;98419.47;5015164;28;20455;-72
2023/05/31 08:50:28;;;;;;;3.07;1.93;;;20.00;39.30;;;19.91;32.61;98409.06;5009872;28;20985;-71
2023/05/31 08:52:57;;;;;;;2.27;1.73;;;20.10;39.30;;;19.86;31.39;98363.25;4991594;28;20479;-70
2023/05/31 08:55:25;;;;;;;4.20;1.67;;;20.40;38.90;;;20.13;30.92;98410.84;4997464;28;20462;-70
2023/05/31 08:57:53;;;;;;;2.50;1.40;;;20.40;38.30;;;19.97;31.13;98397.06;5015267;28;20460;-70
2023/05/31 09:00:22;;;;;;;2.57;1.67;;;20.30;38.10;;;20.08;30.97;98408.91;4991715;28;20468;-69
2023/05/31 09:02:51;;;;;;;3.90;1.20;;;20.30;38.20;;;19.78;31.38;98415.84;4998470;28;20465;-69
2023/05/31 09:05:19;;;;;;;2.77;1.70;;;20.00;38.00;;;19.92;30.35;98402.50;5018612;28;20574;-69
2023/05/31 09:07:49;;;;;;;4.07;1.73;;;20.20;37.70;;;20.17;30.80;98411.94;5023940;28;20481;-69
2023/05/31 09:10:19;;;;;;;1.47;1.37;;;20.30;38.00;;;20.12;31.02;98415.47;5021500;28;20479;-68
2023/05/31 09:12:46;;;;;;;2.70;1.50;;;20.40;38.10;;;20.12;31.07;98414.69;5000062;28;20454;-68
2023/05/31 09:15:15;;;;;;;1.83;1.40;;;20.40;38.20;;;20.37;31.46;98408.44;5013184;28;20472;-71
2023/05/31 09:17:46;;;;;;;2.60;1.50;;;20.40;38.70;;;20.41;30.76;98400.50;5016431;28;20456;-70
2023/05/31 09:20:13;;;;;;;1.87;1.40;;;20.60;38.20;;;20.46;31.32;98406.78;5019336;28;20622;-69
2023/05/31 09:22:41;;;;;;;3.30;1.70;;;20.60;38.70;;;20.51;31.80;98406.00;5019369;28;20455;-69
2023/05/31 09:25:09;;;;;;;5.43;1.70;;;20.70;39.00;;;20.78;31.38;98396.69;5022457;28;20478;-70
2023/05/31 09:27:40;;;;;;;2.87;1.37;;;20.80;39.10;;;20.65;31.40;98404.38;5016478;28;20494;-70
2023/05/31 09:30:10;;;;;;;3.33;1.63;;;20.90;39.20;;;20.73;30.87;98396.72;4998324;28;20461;-70
2023/05/31 09:32:54;;;;;;;2.10;1.70;;;20.90;38.50;;;20.59;31.15;98390.91;5055327;27;20643;-69
2023/05/31 09:35:27;;;;;;;2.73;1.53;;;20.80;38.40;;;20.55;31.42;98384.31;5057791;28;20453;-69
2023/05/31 09:37:56;;;;;;;2.23;2.03;;;20.80;38.50;;;20.72;30.75;98389.56;5038967;28;20454;-69
2023/05/31 09:40:24;;;;;;;4.17;1.70;;;20.80;38.40;;;20.53;31.66;98392.81;5044093;28;20453;-68
2023/05/31 09:42:52;;;;;;;1.70;1.60;;;20.80;38.60;;;20.71;31.04;98387.94;5042270;28;20942;-68
2023/05/31 09:45:21;;;;;;;2.50;1.93;;;20.90;38.80;;;20.70;31.02;98373.34;5042285;28;20461;-68
2023/05/31 09:47:49;;;;;;;1.87;1.43;;;20.90;38.60;;;20.97;31.25;98383.28;5040812;28;20464;-69
2023/05/31 09:50:20;;;;;;;2.07;1.60;;;21.00;38.80;;;21.06;30.53;98375.31;5040117;28;20554;-69
2023/05/31 09:52:51;;;;;;;2.40;1.80;;;21.20;38.50;;;21.03;30.50;98373.13;5047766;28;20495;-68
2023/05/31 09:55:18;;;;;;;3.27;1.83;;;21.20;38.40;;;21.07;30.53;98385.19;5041256;28;20548;-69
2023/05/31 09:57:46;;;;;;;2.60;1.10;;;21.30;38.40;;;21.22;30.30;98378.84;5047465;28;20503;-68
2023/05/31 10:00:17;;;;;;;6.77;1.87;;;21.30;38.30;;;21.11;29.97;98363.50;5049995;28;20504;-70
2023/05/31 10:02:46;;;;;;;3.87;1.80;;;21.30;37.90;;;21.29;29.46;98367.59;5046412;28;20475;-71
2023/05/31 10:05:15;;;;;;;3.57;1.60;;;21.40;37.70;;;21.41;29.77;98376.34;5046054;28;20458;-70
2023/05/31 10:07:48;;;;;;;2.03;1.37;;;21.50;38.10;;;21.14;30.64;98363.75;5037416;28;20455;-70
2023/05/31 10:10:19;;;;;;;2.20;1.90;;;21.40;38.20;;;21.57;30.37;98370.81;5051701;28;21212;-70
2023/05/31 10:12:51;;;;;;;1.80;1.70;;;21.60;38.80;;;21.80;30.00;98369.41;5052805;28;20485;-70
2023/05/31 10:15:22;;;;;;;2.80;2.13;;;21.80;38.60;;;21.45;29.48;98360.94;5035425;28;20461;-70
2023/05/31 10:17:59;;;;;;;2.73;1.60;;;21.70;38.00;;;21.36;30.21;98362.63;5039427;28;20468;-71
2023/05/31 10:20:33;;;;;;;2.37;1.30;;;21.50;38.10;;;21.48;29.54;98363.16;5037671;28;20467;-70
2023/05/31 10:23:09;;;;;;;4.40;1.20;;;21.60;38.00;;;21.48;29.68;98365.06;5039815;28;20983;-69
2023/05/31 10:25:46;;;;;;;2.90;1.20;;;21.60;38.30;;;21.55;29.79;98362.88;5038545;28;20655;-70